AirNav   Pilot Hours Calculator
 
 1049 users online  

9NC2 Flyers Airpark
Linden, North Carolina, USA

GOING TO LINDEN?


FAA INFORMATION EFFECTIVE 17 JUNE 2021

Location

FAA Identifier: 9NC2
Lat/Long: 35-13-05.5860N 078-47-47.0840W
35-13.093100N 078-47.784733W
35.2182183,-78.7964122
(estimated)
Elevation: 115 ft. / 35 m (estimated)
Variation: 07W (1985)
From city: 4 miles N of LINDEN, NC
Time zone: UTC -4 (UTC -5 during Standard Time)
Zip code: 28356

Airport Operations

Airport use: Private use. Permission required prior to landing
Activation date: 06/1991
Control tower: no
ARTCC: WASHINGTON CENTER
FSS: RALEIGH FLIGHT SERVICE STATION
Attendance: UNATNDD
Wind indicator: yes
Segmented circle: no

Airport Communications

WX AWOS-3 at HRJ (10 nm N): 119.025 (910-814-3946)
WX ASOS at FAY (14 nm S): 121.25 (910-484-1546)

Nearby radio navigation aids

VOR radial/distance  VOR name  Freq  Var
FAYr019/14.5FAYETTEVILLE VOR/DME108.8004W
SDZr093/38.8SANDHILLS VORTAC111.8003W
RDUr190/39.3RALEIGH/DURHAM VORTAC117.2009W

 
NDB name  Hdg/Dist  Freq  Var  ID
FORT BRAGG017/4.839307WFGP ..-. --. .--.
POPE101/7.833807WPOB .--. --- -...
HARNETT213/14.241708WHQT .... --.- -
CLINTON313/25.841209WCTZ -.-. - --..
ROBESON028/38.535908WRSY .-. ... -.--

Airport Services

Runway Information

Runway 4/22

Dimensions: 2850 x 65 ft. / 869 x 20 m
Surface: turf
RUNWAY 4  RUNWAY 22
Traffic pattern: leftleft
Obstructions: 55 ft. trees, 150 ft. from runway70 ft. trees, 50 ft. from runway

Airport Ownership and Management from official FAA records

Ownership: Privately-owned
Owner: RONNIE BILL
657 FLYERS DRIVE
LINDEN, NC 28356
Phone (910) 980-0846
Manager: RONNIE BILL
657 FLYERS DRIVE
LINDEN, NC 28356
Phone (910) 980-0846

Airport Operational Statistics

Aircraft based on the field: 5
Single engine airplanes: 3
Ultralights: 2
    

Additional Remarks

FOR CD CTC WASHINGTON ARTCC AT 703-771-3587.

Instrument Procedures

There are no published instrument procedures at 9NC2.

Some nearby airports with instrument procedures:

KFBG - Simmons Army Airfield (9 nm SW)
KHRJ - Harnett Regional Jetport Airport (10 nm N)
KPOB - Pope Army Airfield (11 nm W)
KFAY - Fayetteville Regional Airport/Grannis Field (14 nm S)
5W4 - P K Airpark (23 nm SW)
 
Loc | Ops | Rwys | IFR | FBO | Links
Com | Nav | Svcs | Stats | Notes
Area around 9NC2 (Flyers Airpark)
 
Road maps at: MapQuest Bing Google
 
Aerial photo
WARNING: Photo may not be current or correct
Aerial photo of 9NC2 (Flyers Airpark)
Photo taken 05-Mar-2006
Photo taken from 1000 ft

Do you have a better or more recent aerial photo of Flyers Airpark that you would like to share? If so, please send us your photo.

 
Sectional chart

 
Airport distance calculator
Flying to Flyers Airpark? Find the distance to fly.

From to 9NC2

Sunrise and sunset
Times for 19-Jun-2021
 Local
(UTC-4)
 Zulu
(UTC)
Morning civil twilight05:3209:32
Sunrise06:0210:02
Sunset20:3100:31
Evening civil twilight21:0101:01

Current date and time
Zulu (UTC)  19-Jun-2021 13:33:57
Local (UTC-4)  19-Jun-2021 09:33:57
 
METAR
KFBG 
8nm SW 
191256Z AUTO 24009KT 10SM CLR 27/22 A2998 RMK AO2 SLP153 T02690218 $
KHRJ 
10nm N 
191315Z AUTO 22006KT 10SM CLR 27/21 A2999 RMK AO2 T02700205
KPOB 
11nm W 
191256Z 26011KT 10SM OVC250 27/21 A2999 RMK AO2A SLPNO ALSTG ESTMD
KFAY 
15nm S 
191253Z 23011KT 10SM CLR 27/21 A3000 RMK AO2 SLP152 T02670206
TAF
KFBG 
8nm SW 
190900Z 1909/2015 22006KT 9999 FEW055 QNH2998INS BECMG 1922/1923 23020G30KT 9999 FEW055 QNH2994INS BECMG 1923/1924 23015KT 9999 FEW045 QNH2995INS BECMG 2013/2014 VRB06KT 8000 -SHRA BKN003 QNH2999INS TEMPO 2013/2015 23020G25KT 8000 -TSRA OVC001CB TX33/1918Z TN20/1911Z
KPOB 
11nm W 
190900Z 1909/2015 21006KT 9999 FEW250 520102 QNH2998INS BECMG 1914/1915 24010G15KT 9999 FEW050 BKN250 QNH2994INS BECMG 1917/1918 23013G21KT 9999 SCT050 BKN200 QNH2990INS BECMG 1923/1924 25010G15KT 9999 FEW025 BKN050 BKN080 OVC200 QNH2991INS BECMG 2009/2010 24012G18KT 8000 -RA SCT012 BKN020 OVC040 QNH2998INS TX34/1920Z TN21/1910Z
KFAY 
15nm S 
191120Z 1912/2012 23008KT P6SM SCT250 FM191700 23012G23KT P6SM BKN250 FM200300 23015KT P6SM VCSH BKN050 OVC250 FM200900 20007KT 6SM -SHRA BR OVC025
NOTAMs
Click for the latest NOTAMs
NOTAMs are issued by the DoD/FAA and will open in a separate window not controlled by AirNav.

 

 
 

Would you like to see your business listed on this page?

 If your business provides an interesting product or service to pilots, flight crews, aircraft, or users of the Flyers Airpark, you should consider listing it here.  To start the listing process, click on the button below
 
Add a business
 

Other Pages about Flyers Airpark

Update a link
 
Copyright © AirNav, LLC. All rights reserved. Privacy Policy  Contact